Open Sprint Meymac (19) - B-D20/21/35/40

Date : 29/10/2016

Place Nom Licence Catégorie Club Temps CN à J-60 Points Différence Nouveau CN
1 DROIN Solène 17925 D20 4201RA 0:13:32 5952 5631 -321 6016
2 CHRIST Sarah 7979 D21 2105BO 0:15:17 4821 4986 +165 5106
3 SOUAN Cécile 26423 D20 7707IF 0:15:58 3739 4773 +1034 4667
4 PARIS Aurelia 31423 D21 1905LI 0:16:10 4652 4714 +62 4766
5 MERCIER Leslie 28321 D21 6803AL 0:16:11 4911 4709 -202 4891
6 VOUILLON Noémie 24088 D35 2105BO 0:16:11 4830 4709 -121 4847
7 BRUNDU-LEMAIRE Sarah 18059 D40 7807IF 0:16:28 5076 4628 -448 5065
8 DURST Laura 30279 D20 7707IF 0:16:37 4548 4586 +38 4667
9 VASSY Margaux 8514 D21 4203RA 0:16:42 5484 4563 -921 5542
10 DE LONGUEVILLE Béatrice 24272 D40 5907NO 0:16:47 5763 4540 -1223 5763
11 COLAS Pascaline 33224 D21 6911RA 0:16:55 4505 3880
12 GONET Janick 21046 D40 2610RA 0:16:56 4664 4500 -164 4637
13 BARRIER Marianne 801 D21 4203RA 0:16:58 5505 4491 -1014 5505
14 RUKAITE Jurate 32049 D21 9502IF 0:17:11 5084 4435 -649 4620
15 LECINA Maryline 28404 D35 8607PC 0:17:17 3901 4409 +508 3901
16 PERRIER Emilie 19722 D21 3913FC 0:17:18 4306 4405 +99 4481
17 ROULLEAUX Noemie 8922 D21 9105IF 0:17:27 5116 4367 -749 5116
18 HERAULT Céline 30201 D35 4601MP 0:17:37 3957 4326 +369 4138
19 MANIERE Marie 17067 D21 6008PI 0:17:37 4433 4326 -107 4489
20 VADUREL Pauline 19241 D21 5907NO 0:17:38 4716 4321 -395 4575
21 LASOUCHE Emmanuelle 12528 D35 6906RA 0:17:41 3881 4309 +428 4195
22 VERCASSON Rachel 14527 D21 2604RA 0:17:42 4434 4305 -129 4160
23 BORNARD Julie 9402 D20 4201RA 0:17:49 5119 4277 -842 5149
24 FAYE Audrey 30034 D40 8404PZ 0:17:59 3739 4237 +498 3999
25 FIGARD Mélanie 32799 D21 7004FC 0:17:59 3088 4237 +1149 3652
26 CHOMETTE Aurore 19532 D21 4201RA 0:18:01 4248 4230 -18 4271
27 DEJARDIN Emilie 10863 D21 3811RA 0:18:04 4046 4218 +172 4077
28 GUINOT Marion 15018 D20 2108BO 0:18:15 5053 4175 -878 5083
29 DELCUSE Patricia 29299 D40 6205NO 0:18:17 3204 4168 +964 3326
30 BONORA Marine 11542 D20 6906RA 0:18:18 4875 4164 -711 4875
31 PICHOL Sabrina 1223 D21 9006FC 0:18:19 4160 3047
32 VALETTE Marion 10430 D20 6913RA 0:18:25 3885 4138 +253 4065
33 OCTOBRE Valérie 21014 D40 0705RA 0:18:25 4659 4138 -521 4502
34 MICHAUD Anne-Lise 28559 D21 4204RA 0:18:27 3599 4130 +531 3901
35 PICQUENDAR Victoria 22472 D21 7309RA 0:18:31 4311 4115 -196 4475
36 LEPERQUE Ophelie 20200 D21 6208NO 0:18:35 4204 4101 -103 4183
37 CARRE Pauline 32377 D21 5907NO 0:18:40 4152 4082 -70 4586
38 BLUM Marie 13674 D21 5116CA 0:18:44 3467 4068 +601 3540
39 BESTEL Sandra 10758 D20 9105IF 0:18:46 4544 4060 -484 4534
40 SCHWARTZ Renée 33327 D35 5116CA 0:18:48 4053 4064
41 BRIERE Axelle 24514 D40 2704NM 0:19:00 4518 4011 -507 4525
42 CONTER Magalie 13016 D35 6707AL 0:19:03 3987 4000 +13 4359
43 LEFEVRE Céline 25177 D35 7720IF 0:19:07 3528 3986 +458 3867
44 KACZMAREK Apolline 29635 D20 5907NO 0:19:21 2957 3938 +981 3305
45 DANEL Emilie 30596 D21 3308AQ 0:19:22 3910 3935 +25 3872
46 AMROUCHE Sandrine 22654 D40 0615PZ 0:19:41 3732 3871 +139 3815
47 HUGUET Elisabeth 30813 D35 2605RA 0:19:42 3400 3868 +468 3879
48 ANDRE Isabelle 25211 D40 4010AQ 0:19:49 4263 3845 -418 4186
49 REINEN Melanie 21313 D21 4504CE 0:19:50 3645 3842 +197 3841
50 RYBARCZYK Emmanuelle 31442 D21 6203NO 0:19:57 3376 3820 +444 3538
51 DUCHASSIN Audrey 12880 D35 8105MP 0:19:57 4257 3820 -437 4208
52 MARQUES Sabine 28472 D35 4012AQ 0:20:11 4144 3775 -369 4090
53 RIVOLLIER Isaline 22451 D20 4201RA 0:20:13 3249 3769 +520 3318
54 LAUDE MAGALI 28688 D40 6208NO 0:20:25 4035 3732 -303 3916
55 DURIEZ Caroline 24170 D21 6208NO 0:20:27 3290 3726 +436 3542
56 GUILLOT Jeanne 20364 D20 7004FC 0:20:32 3634 3711 +77 3762
57 LOGE Lucie 12768 D21 5703LO 0:20:34 3975 3705 -270 3645
58 LAVAL Corine 22371 D40 8106MP 0:20:35 4209 3702 -507 4276
59 PECQUEUR Juliette 33329 D21 5116CA 0:20:37 3696 2511
60 COLLETTE Céline 24924 D40 4601MP 0:20:47 3448 3666 +218 3514
61 PELLISSIER Elisabeth 33121 D40 4201RA 0:20:49 3469 3661 +192 3570
62 MOULIERE Camille 2892 D40 0207PI 0:20:50 5109 3658 -1451 5097
63 GRAULET MAÏLYS 33319 D20 4709AQ 0:20:54 3646 0
64 GRANDPRE Laetitia 22160 D21 7707IF 0:20:54 3646 3232
65 DOGUET Sylvie 14544 D40 4705AQ 0:20:58 3975 3634 -341 4033
66 LAGRANGE Florence 16189 D40 7716IF 0:21:03 2612 3620 +1008 2983
67 VIEQUE Karine 25018 D40 6208NO 0:21:04 4013 3617 -396 3942
68 PIERRE-KERANGUEVEN Sarah 23006 D40 3502BR 0:21:24 3574 3561 -13 3510
69 SOUVAIS Patricia 31696 D21 8807LO 0:21:26 3960 3555 -405 3937
70 RICHARD Marianne 27822 D40 4204RA 0:21:31 3212 3542 +330 3263
71 BALESTRAT Mathilde 30381 D21 8702LI 0:21:31 1634 3542 +1908 2510
72 RUAUD Claire 29799 D20 4601MP 0:21:39 3710 3520 -190 3812
73 CHAGNON Emilie 20867 D35 2407AQ 0:21:49 3350 3493 +143 3455
74 TERZIEVA Velina 31473 D21 1403NM 0:21:52 3945 3485 -460 3425
75 PICHOLLET Francine 266 D40 7404RA 0:21:54 4201 3480 -721 4275
76 ROUGIER Sandra 28438 D40 7808IF 0:22:04 3227 3453 +226 3326
77 DA SILVA Mylène 27241 D21 3105MP 0:22:07 3423 3445 +22 3577
78 PERRIN Celine 28329 D21 4201RA 0:22:15 2677 3425 +748 3045
79 LEFEVRE Lou 30950 D20 5907NO 0:22:23 3499 3404 -95 3549
80 BOURGEOIS REPUBLIQUE Mathilde 28181 D20 2517FC 0:22:30 3915 3387 -528 3915
81 SERRES Laurence 7407 D40 3308AQ 0:22:33 3412 3379 -33 3416
82 GUIOT Jeanne 22584 D35 4504CE 0:22:55 2916 3325 +409 3102
83 LOZE Claire 26331 D40 2407AQ 0:23:02 3077 3308 +231 3165
84 RAVENEL Manon 10903 D21 6804AL 0:23:14 3948 3280 -668 4017
85 ASTOUL Sandrine 16801 D35 6911RA 0:23:22 2689 3261 +572 2721
86 MALPERTU Charlotte 22619 D21 4709AQ 0:23:27 2781 3250 +469 2881
87 URVOAS Nadège 28383 D40 7807IF 0:23:32 3851 3238 -613 3680
88 LOUVET Eloise 912 D21 7707IF 0:23:34 4120 3233 -887 4120
89 RIPAUD Aude 31921 D21 4601MP 0:23:36 3615 3229 -386 3526
90 CHEVALIER Caroline 24293 D35 8702LI 0:23:39 4015 3222 -793 4079
91 VIOT Sandrine 31445 D35 8807LO 0:23:41 3050 3218 +168 3268
92 ETCHEN Celine 33899 D40 3319AQ 0:23:51 3195 2302
93 CLERC Caroline 10493 D40 7305RA 0:23:51 4274 3195 -1079 4301
94 PECHSTEIN Alice 9619 D35 5402LO 0:24:03 3222 3168 -54 3224
95 FRITZ Christina 28017 D35 3913FC 0:24:23 2521 3125 +604 2521
96 DESQUEYROUX Stéphanie 26591 D21 3318AQ 0:24:41 3228 3087 -141 3145
97 POIVERT Stéphanie 30188 D40 2407AQ 0:24:43 3221 3083 -138 3198
98 SAVOIRE Raphaëlle 30455 D35 3308AQ 0:24:57 2893 3054 +161 3025
99 POURRE Marion 10077 D21 2508FC 0:25:06 3393 3036 -357 3441
100 PIERRE Elodie 30149 D21 2704NM 0:25:52 3421 2946 -475 3357
101 GIROUD Manon 32661 D21 7720IF 0:26:04 2923 0
102 SENCE Marie-Pierre 29897 D40 5906NO 0:26:04 2982 2923 -59 2988
103 BAUD Sandrine 27612 D40 6203NO 0:26:10 2850 2912 +62 2848
104 GIRARDOT Carine 31086 D35 7004FC 0:26:18 3171 2897 -274 3198
105 ROLIN Charlotte 23947 D40 6208NO 0:26:20 3703 2894 -809 3646
106 CHICHERY Séverine 26114 D35 8106MP 0:26:30 2801 2876 +75 2839
107 LE GOFF Laura 33320 D21 7720IF 0:26:32 2872 0
108 JOLLY Bénédicte 28943 D40 8607PC 0:26:35 3970 2867 -1103 3970
109 BOHNERT Carole 30404 D40 3308AQ 0:26:38 2701 2861 +160 2884
110 POMMIER Nathalie 28884 D40 1104LR 0:26:59 2334 2824 +490 2494
111 POIRSON Marie 26204 D35 7004FC 0:27:16 0 2795 2289
112 PARIZOTTO Valérie 26637 D21 4705AQ 0:27:22 3740 2784 -956 3785
113 GESRET Laetitia 13776 D35 9404IF 0:27:26 2346 2778 +432 2666
114 BARRIERE Marie 29583 D40 3319AQ 0:28:14 3326 2699 -627 3374
115 DOOSE Capucine 32368 D21 5907NO 0:29:25 2268 2590 +322 2453
116 BLOT Karine 28065 D40 8807LO 0:29:31 897 2582 +1685 878
117 DEBARD Emmanuelle 33936 D40 4203RA 0:30:51 2470 0
118 BOUILLARD Marine 33184 D21 7720IF 0:31:24 2427 0
119 BEZIA Delphine 30941 D35 7722IF 0:31:56 1632 2386 +754 2148
120 REYNIER-SALESSES Cindy 33776 D21 7701IF 0:33:20 2286 0
121 LINTANF Isabelle 23715 D40 9105IF 0:34:05 2818 2236 -582 2678
122 LHOMME Marie 30678 D40 4504CE 0:35:28 2607 2149 -458 2615
123 TALON Laurence 33622 D40 8607PC 0:42:24 1797 1725
124 MARCK Aline 20290 D40 8607PC 0:42:24 3086 1797 -1289 1761
125 HUMEAU Marie 32979 D40 8607PC 0:43:16 0 1761 1726
126 MARTIN Céline 29217 D40 5402LO 0:46:44 1528 1631 +103 1340
127 POCHET Agnès 33361 D40 3308AQ 0:51:54 1468 1409
POSTY NADEGE 33053 D40 3913FC pm 0 0
GRANGE Claire 27825 D40 4204RA pm 3969 0 3960
VEZANT Anne 32917 D35 8702LI pm 2572 0 2687
BEGU Aurore 9042 D40 7722IF pm 3247 0 3262
VAN DER EECKEN Anne 31237 D40 8607PC pm 2599 0 2599
BLAISE Danielle 31358 D40 1307PZ pm 2952 0 2822